Time;durP1;ratioP1;P1;durP2;ratioP2;P2;SDS_P1;SDS_P2;PMS_P1;PMS_P2;Temp;Humidity;BMP_temperature;BMP_pressure;BME280_temperature;BME280_humidity;BME280_pressure;Samples;Min_cycle;Max_cycle;Signal;HPM_P1;HPM_P2
2021/11/03 00:00:33;;;;;;;0.30;0.30;;;4.50;99.90;;;;;;5050474;28;20162;-80
2021/11/03 00:03:03;;;;;;;2.05;1.95;;;4.60;99.90;;;;;;5049559;28;20229;-78
2021/11/03 00:05:29;;;;;;;1.00;1.00;;;4.60;99.90;;;;;;5032355;28;20265;-79
2021/11/03 00:07:57;;;;;;;0.68;0.68;;;4.60;99.90;;;;;;5032611;28;20166;-79
2021/11/03 00:10:23;;;;;;;1.58;1.48;;;4.50;99.90;;;;;;5050179;28;20564;-79
2021/11/03 00:12:50;;;;;;;0.52;0.52;;;4.60;99.90;;;;;;5031697;28;20223;-77
2021/11/03 00:15:16;;;;;;;0.80;0.80;;;4.60;99.90;;;;;;5032288;28;20209;-77
2021/11/03 00:17:43;;;;;;;0.10;0.10;;;4.60;99.90;;;;;;5050134;28;20163;-77
2021/11/03 00:20:11;;;;;;;0.30;0.30;;;4.50;99.90;;;;;;5050071;28;20188;-77
2021/11/03 00:22:37;;;;;;;0.38;0.38;;;4.50;99.90;;;;;;5031766;28;20170;-79
2021/11/03 00:25:05;;;;;;;0.22;0.22;;;4.50;99.90;;;;;;5032188;28;20204;-77
2021/11/03 00:27:31;;;;;;;0.22;0.22;;;4.50;99.90;;;;;;5049707;28;20212;-78
2021/11/03 00:29:56;;;;;;;0.20;0.20;;;4.50;99.90;;;;;;5049971;28;20157;-78
2021/11/03 00:32:22;;;;;;;0.85;0.85;;;4.50;99.90;;;;;;5032246;28;20260;-78
2021/11/03 00:34:48;;;;;;;0.20;0.20;;;4.50;99.90;;;;;;5032469;28;20165;-78
2021/11/03 00:37:14;;;;;;;0.00;0.00;;;4.40;99.90;;;;;;5049661;28;20197;-78
2021/11/03 00:39:41;;;;;;;0.88;0.88;;;4.40;99.90;;;;;;5039641;28;20213;-78
2021/11/03 00:42:07;;;;;;;2.42;1.98;;;4.40;99.90;;;;;;5046584;28;20158;-78
2021/11/03 00:44:34;;;;;;;0.65;0.65;;;4.50;99.90;;;;;;5045219;28;20207;-78
2021/11/03 00:47:00;;;;;;;0.28;0.28;;;4.60;99.90;;;;;;5046431;28;20656;-78
2021/11/03 00:49:26;;;;;;;1.63;1.48;;;4.60;99.90;;;;;;5047180;28;20204;-78
2021/11/03 00:51:52;;;;;;;2.63;1.70;;;4.60;99.90;;;;;;5045942;28;20193;-78
2021/11/03 00:54:18;;;;;;;0.10;0.10;;;4.50;99.90;;;;;;5046409;28;20204;-78
2021/11/03 00:56:47;;;;;;;0.40;0.40;;;4.40;99.90;;;;;;5048356;28;20169;-78
2021/11/03 00:59:14;;;;;;;0.20;0.20;;;4.30;99.90;;;;;;5049434;28;20189;-77
2021/11/03 01:01:40;;;;;;;0.10;0.10;;;4.30;99.90;;;;;;5047895;28;20177;-80
2021/11/03 01:04:06;;;;;;;0.57;0.57;;;4.40;99.90;;;;;;5048358;28;20243;-79
2021/11/03 01:06:32;;;;;;;0.73;0.73;;;4.40;99.90;;;;;;5049460;28;20161;-79
2021/11/03 01:08:58;;;;;;;0.10;0.10;;;4.30;99.90;;;;;;5048033;28;20197;-80
2021/11/03 01:11:24;;;;;;;0.82;0.82;;;4.30;99.90;;;;;;5049238;28;20158;-79
2021/11/03 01:13:50;;;;;;;0.10;0.10;;;4.30;99.90;;;;;;5048044;28;20543;-79
2021/11/03 01:16:16;;;;;;;1.08;0.65;;;4.30;99.90;;;;;;5047906;28;20171;-79
2021/11/03 01:18:41;;;;;;;0.10;0.10;;;4.20;99.90;;;;;;5047849;28;20194;-79
2021/11/03 01:21:08;;;;;;;8.10;0.95;;;4.20;99.90;;;;;;5047966;28;20176;-79
2021/11/03 01:23:34;;;;;;;0.10;0.10;;;4.20;99.90;;;;;;5049242;28;20185;-79
2021/11/03 01:26:00;;;;;;;0.10;0.10;;;4.20;99.90;;;;;;5047803;28;20199;-79
2021/11/03 01:28:26;;;;;;;0.10;0.10;;;4.20;99.90;;;;;;5048982;28;20197;-79
2021/11/03 01:30:53;;;;;;;0.45;0.45;;;4.10;99.90;;;;;;5047628;28;20169;-79
2021/11/03 01:33:21;;;;;;;0.90;0.90;;;4.10;99.90;;;;;;5047593;28;20197;-79
2021/11/03 01:35:47;;;;;;;0.85;0.85;;;4.10;99.90;;;;;;5048941;28;20153;-78
2021/11/03 01:38:14;;;;;;;0.68;0.68;;;4.00;99.90;;;;;;5048944;28;20185;-79
2021/11/03 01:40:45;;;;;;;0.30;0.30;;;3.90;99.90;;;;;;5047653;28;20166;-77
2021/11/03 01:43:31;;;;;;;1.45;1.17;;;3.90;99.90;;;;;;5048936;28;20161;-77
2021/11/03 01:46:27;;;;;;;0.10;0.10;;;4.00;99.90;;;;;;5048964;28;20164;-77
2021/11/03 01:49:04;;;;;;;0.00;0.00;;;3.90;99.90;;;;;;5048870;28;20193;-79
2021/11/03 01:51:43;;;;;;;0.28;0.28;;;3.90;99.90;;;;;;5048781;28;20161;-79
2021/11/03 01:54:12;;;;;;;0.52;0.52;;;3.90;99.90;;;;;;5047533;28;20196;-79
2021/11/03 01:56:40;;;;;;;0.20;0.20;;;3.90;99.90;;;;;;5047542;28;20170;-79
2021/11/03 01:59:22;;;;;;;1.60;1.50;;;3.80;99.90;;;;;;5048699;28;20193;-79
2021/11/03 02:01:49;;;;;;;0.10;0.10;;;3.80;99.90;;;;;;5048652;28;20272;-79
2021/11/03 02:04:16;;;;;;;0.43;0.43;;;3.90;99.90;;;;;;5052712;28;20153;-79
2021/11/03 02:06:43;;;;;;;0.65;0.65;;;3.90;99.90;;;;;;5052655;28;20192;-79
2021/11/03 02:09:10;;;;;;;0.10;0.10;;;3.90;99.90;;;;;;5052650;28;20189;-78
2021/11/03 02:11:36;;;;;;;2.55;1.92;;;3.80;99.90;;;;;;5052597;28;20168;-79
2021/11/03 02:14:04;;;;;;;1.25;1.05;;;3.80;99.90;;;;;;5051435;28;20162;-78
2021/11/03 02:16:32;;;;;;;0.20;0.20;;;3.60;99.90;;;;;;5051182;28;20162;-79
2021/11/03 02:18:59;;;;;;;0.10;0.10;;;3.50;99.90;;;;;;5051118;28;20193;-79
2021/11/03 02:21:38;;;;;;;0.10;0.10;;;3.60;99.90;;;;;;5052430;28;20215;-79
2021/11/03 02:24:12;;;;;;;0.30;0.30;;;3.60;99.90;;;;;;5051068;28;20260;-79
2021/11/03 02:26:44;;;;;;;0.22;0.22;;;3.60;99.90;;;;;;5052356;28;20232;-79
2021/11/03 02:29:13;;;;;;;0.57;0.57;;;3.70;99.90;;;;;;5052173;28;20249;-78
2021/11/03 02:31:46;;;;;;;0.03;0.03;;;3.60;99.90;;;;;;5052182;28;20517;-79
2021/11/03 02:34:29;;;;;;;0.30;0.30;;;3.60;99.90;;;;;;5050837;28;20204;-79
2021/11/03 02:36:57;;;;;;;1.75;1.65;;;3.60;99.90;;;;;;5052033;28;20161;-78
2021/11/03 02:39:39;;;;;;;0.35;0.35;;;3.60;99.90;;;;;;5052086;28;20196;-79
2021/11/03 02:42:06;;;;;;;0.17;0.17;;;3.60;99.90;;;;;;5052062;28;20157;-78
2021/11/03 02:44:35;;;;;;;0.77;0.77;;;3.60;99.90;;;;;;5050683;28;20177;-78
2021/11/03 02:47:03;;;;;;;0.95;0.88;;;3.50;99.90;;;;;;5050759;28;20196;-78
2021/11/03 02:49:29;;;;;;;0.25;0.25;;;3.50;99.90;;;;;;5051925;28;20195;-79
2021/11/03 02:51:55;;;;;;;0.10;0.10;;;3.50;99.90;;;;;;5050463;28;20261;-79
2021/11/03 02:54:22;;;;;;;1.08;1.08;;;3.60;99.90;;;;;;5051811;28;20154;-79
2021/11/03 02:56:54;;;;;;;0.10;0.10;;;3.60;99.90;;;;;;5050449;28;20170;-79
2021/11/03 02:59:25;;;;;;;0.20;0.20;;;3.70;99.90;;;;;;5051739;28;20185;-79
2021/11/03 03:01:57;;;;;;;1.52;0.65;;;3.70;99.90;;;;;;5051639;28;20181;-79
2021/11/03 03:04:27;;;;;;;0.30;0.30;;;3.60;99.90;;;;;;5050320;28;20183;-79
2021/11/03 03:06:53;;;;;;;0.10;0.10;;;3.60;99.90;;;;;;5051633;28;20221;-78
2021/11/03 03:09:20;;;;;;;0.05;0.05;;;3.70;99.90;;;;;;5050101;28;20196;-80
2021/11/03 03:11:51;;;;;;;0.75;0.75;;;3.80;99.90;;;;;;5050192;28;20192;-79
2021/11/03 03:14:21;;;;;;;0.10;0.10;;;3.80;99.90;;;;;;5051351;28;20153;-79
2021/11/03 03:16:47;;;;;;;1.10;0.95;;;3.90;99.90;;;;;;5050183;28;20197;-79
2021/11/03 03:19:13;;;;;;;1.48;1.42;;;4.00;99.90;;;;;;5051313;28;20193;-79
2021/11/03 03:21:40;;;;;;;0.10;0.10;;;4.00;99.90;;;;;;5051320;28;20158;-79
2021/11/03 03:24:09;;;;;;;0.10;0.10;;;4.00;99.90;;;;;;5049950;28;20165;-79
2021/11/03 03:26:36;;;;;;;0.20;0.20;;;4.00;99.90;;;;;;5047308;28;20208;-78
2021/11/03 03:29:04;;;;;;;0.25;0.25;;;3.90;99.90;;;;;;5031222;28;20222;-78
2021/11/03 03:31:31;;;;;;;0.10;0.10;;;4.00;99.90;;;;;;5031137;28;20154;-79
2021/11/03 03:33:59;;;;;;;1.25;1.25;;;4.10;99.90;;;;;;5031138;28;20158;-79
2021/11/03 03:36:26;;;;;;;0.10;0.10;;;4.00;99.90;;;;;;5013488;28;20253;-79
2021/11/03 03:38:53;;;;;;;0.10;0.10;;;4.00;99.90;;;;;;5013517;28;20170;-79
2021/11/03 03:41:21;;;;;;;0.10;0.10;;;4.10;99.90;;;;;;5031055;28;20647;-79
2021/11/03 03:43:47;;;;;;;0.10;0.10;;;4.10;99.90;;;;;;5013194;28;20180;-79
2021/11/03 03:46:14;;;;;;;0.10;0.10;;;4.10;99.90;;;;;;5013255;28;20193;-79
2021/11/03 03:48:40;;;;;;;0.63;0.63;;;4.10;99.90;;;;;;5013153;28;20180;-79
2021/11/03 03:51:07;;;;;;;1.15;1.13;;;4.20;99.90;;;;;;5013001;28;20181;-79
2021/11/03 03:53:34;;;;;;;0.10;0.10;;;4.20;99.90;;;;;;5013061;28;20206;-79
2021/11/03 03:56:00;;;;;;;0.30;0.30;;;4.30;99.90;;;;;;5013104;28;20635;-79
2021/11/03 03:58:26;;;;;;;0.10;0.10;;;4.30;99.90;;;;;;5030541;28;20193;-79
2021/11/03 04:00:52;;;;;;;1.10;1.10;;;4.10;99.90;;;;;;5012908;28;20181;-79
2021/11/03 04:03:19;;;;;;;0.10;0.10;;;4.10;99.90;;;;;;5030469;28;20229;-79
2021/11/03 04:05:45;;;;;;;0.10;0.10;;;4.10;99.90;;;;;;5012926;28;20546;-80
2021/11/03 04:08:12;;;;;;;0.10;0.10;;;4.00;99.90;;;;;;5030131;28;20197;-80
2021/11/03 04:10:39;;;;;;;0.22;0.22;;;4.00;99.90;;;;;;5012730;28;20625;-80
2021/11/03 04:13:06;;;;;;;0.82;0.82;;;4.00;99.90;;;;;;5030477;28;20313;-80
2021/11/03 04:15:33;;;;;;;0.10;0.10;;;4.00;99.90;;;;;;5030496;28;20589;-80
2021/11/03 04:18:00;;;;;;;0.57;0.57;;;4.00;99.90;;;;;;5030382;28;20213;-79
2021/11/03 04:20:26;;;;;;;0.50;0.50;;;4.00;99.90;;;;;;5030257;28;20162;-79
2021/11/03 04:22:52;;;;;;;0.10;0.10;;;4.00;99.90;;;;;;5012476;28;20178;-78
2021/11/03 04:25:19;;;;;;;0.20;0.20;;;4.00;99.90;;;;;;5029932;28;20216;-78
2021/11/03 04:27:45;;;;;;;0.73;0.73;;;4.10;99.90;;;;;;5030043;28;20189;-79
2021/11/03 04:30:16;;;;;;;0.50;0.50;;;4.20;99.90;;;;;;5030017;28;20189;-78
2021/11/03 04:32:43;;;;;;;0.10;0.10;;;4.30;99.90;;;;;;5029960;28;20205;-79
2021/11/03 04:35:10;;;;;;;0.08;0.08;;;4.30;99.90;;;;;;5012417;28;20233;-79
2021/11/03 04:37:36;;;;;;;0.10;0.10;;;4.40;99.90;;;;;;5029923;28;20192;-80
2021/11/03 04:40:04;;;;;;;0.50;0.50;;;4.50;99.90;;;;;;5012309;28;20200;-80
2021/11/03 04:42:30;;;;;;;0.10;0.10;;;4.40;99.90;;;;;;5029877;28;20164;-78
2021/11/03 04:44:56;;;;;;;0.10;0.10;;;4.30;99.90;;;;;;5012173;28;20174;-78
2021/11/03 04:47:22;;;;;;;0.17;0.17;;;4.40;99.90;;;;;;5011857;28;20204;-78
2021/11/03 04:49:48;;;;;;;0.38;0.38;;;4.40;99.90;;;;;;5029618;28;20544;-78
2021/11/03 04:52:14;;;;;;;3.15;0.85;;;4.30;99.90;;;;;;5029610;28;20636;-78
2021/11/03 04:54:40;;;;;;;0.32;0.32;;;4.30;99.90;;;;;;5011502;28;20166;-78
2021/11/03 04:57:07;;;;;;;3.20;2.63;;;4.30;99.90;;;;;;5029488;28;20197;-78
2021/11/03 04:59:34;;;;;;;0.10;0.10;;;4.30;99.90;;;;;;5040988;28;20177;-78
2021/11/03 05:02:00;;;;;;;2.05;0.75;;;4.40;99.90;;;;;;5039079;28;20244;-78
2021/11/03 05:04:25;;;;;;;0.10;0.10;;;4.40;99.90;;;;;;5049236;28;20177;-78
2021/11/03 05:06:51;;;;;;;0.20;0.20;;;4.40;99.90;;;;;;5032205;28;20205;-79
2021/11/03 05:09:18;;;;;;;0.25;0.25;;;4.50;99.90;;;;;;5049199;28;20252;-79
2021/11/03 05:11:44;;;;;;;0.10;0.10;;;4.50;99.90;;;;;;5047520;28;20184;-79
2021/11/03 05:14:10;;;;;;;0.10;0.10;;;4.50;99.90;;;;;;5043286;28;20245;-79
2021/11/03 05:16:36;;;;;;;0.47;0.47;;;4.50;99.90;;;;;;5048731;28;20239;-79
2021/11/03 05:19:03;;;;;;;0.40;0.40;;;4.60;99.90;;;;;;5031375;28;20195;-79
2021/11/03 05:21:31;;;;;;;0.10;0.10;;;4.60;99.90;;;;;;5049072;28;20157;-79
2021/11/03 05:23:57;;;;;;;0.00;0.00;;;4.50;99.90;;;;;;5031149;28;20180;-79
2021/11/03 05:26:25;;;;;;;0.47;0.47;;;4.40;99.90;;;;;;5035488;28;20185;-79
2021/11/03 05:28:54;;;;;;;0.20;0.20;;;4.50;99.90;;;;;;5048859;28;20217;-78
2021/11/03 05:31:21;;;;;;;0.10;0.10;;;4.40;99.90;;;;;;5031094;28;20191;-78
2021/11/03 05:33:47;;;;;;;0.10;0.10;;;4.40;99.90;;;;;;5040197;28;20278;-77
2021/11/03 05:36:20;;;;;;;0.52;0.52;;;4.40;99.90;;;;;;5028301;28;20208;-79
2021/11/03 05:38:46;;;;;;;0.20;0.20;;;4.50;99.90;;;;;;5011599;28;20172;-79
2021/11/03 05:41:12;;;;;;;0.10;0.10;;;4.40;99.90;;;;;;5029176;28;20178;-78
2021/11/03 05:43:38;;;;;;;0.20;0.20;;;4.40;99.90;;;;;;5029033;28;20154;-80
2021/11/03 05:46:05;;;;;;;0.10;0.10;;;4.40;99.90;;;;;;5029339;28;20181;-80
2021/11/03 05:48:34;;;;;;;0.55;0.55;;;4.40;99.90;;;;;;5028947;28;20194;-80
2021/11/03 05:51:00;;;;;;;0.60;0.60;;;4.50;99.90;;;;;;5011015;28;20197;-79
2021/11/03 05:53:26;;;;;;;0.98;0.98;;;4.40;99.90;;;;;;5010916;28;20201;-79
2021/11/03 05:55:52;;;;;;;0.63;0.63;;;4.40;99.90;;;;;;5028931;28;20165;-78
2021/11/03 05:58:18;;;;;;;0.10;0.10;;;4.50;99.90;;;;;;5028627;28;20194;-77
2021/11/03 06:00:44;;;;;;;25.23;1.95;;;4.50;99.90;;;;;;5028580;28;20167;-78
2021/11/03 06:03:11;;;;;;;1.52;1.48;;;4.60;99.90;;;;;;5010907;28;20229;-78
2021/11/03 06:05:36;;;;;;;0.03;0.03;;;4.70;99.90;;;;;;5010751;28;20170;-78
2021/11/03 06:08:07;;;;;;;0.32;0.32;;;4.70;99.90;;;;;;5010802;28;20265;-79
2021/11/03 06:10:39;;;;;;;4.38;2.47;;;4.70;99.90;;;;;;5010794;28;20198;-78
2021/11/03 06:13:06;;;;;;;0.32;0.32;;;4.70;99.90;;;;;;5028655;28;20612;-79
2021/11/03 06:15:37;;;;;;;0.30;0.30;;;4.80;99.90;;;;;;5028661;28;20158;-79
2021/11/03 06:18:05;;;;;;;0.10;0.10;;;4.80;99.90;;;;;;5009001;28;20288;-78
2021/11/03 06:20:31;;;;;;;0.52;0.52;;;4.80;99.90;;;;;;5026802;28;20154;-78
2021/11/03 06:22:57;;;;;;;0.00;0.00;;;4.80;99.90;;;;;;5026744;28;20166;-78
2021/11/03 06:25:24;;;;;;;0.10;0.10;;;4.70;99.90;;;;;;5026411;28;20165;-79
2021/11/03 06:27:52;;;;;;;0.65;0.65;;;4.70;99.90;;;;;;5026645;28;20193;-78
2021/11/03 06:30:22;;;;;;;0.70;0.70;;;4.70;99.90;;;;;;5026596;28;20170;-79
2021/11/03 06:32:48;;;;;;;0.43;0.43;;;4.70;99.90;;;;;;5027604;28;20246;-79
2021/11/03 06:35:14;;;;;;;0.85;0.85;;;4.70;99.90;;;;;;5028077;28;20167;-79
2021/11/03 06:37:41;;;;;;;0.00;0.00;;;4.80;99.90;;;;;;5028295;28;20250;-79
2021/11/03 06:40:10;;;;;;;1.67;1.17;;;4.70;99.90;;;;;;5010651;28;20166;-79
2021/11/03 06:42:36;;;;;;;0.55;0.55;;;4.70;99.90;;;;;;5010123;28;20167;-79
2021/11/03 06:45:05;;;;;;;0.00;0.00;;;4.80;99.90;;;;;;5010728;28;20166;-77
2021/11/03 06:47:31;;;;;;;0.13;0.13;;;4.90;99.90;;;;;;5028855;28;20230;-78
2021/11/03 06:49:57;;;;;;;0.05;0.05;;;5.00;99.90;;;;;;5013847;28;20166;-78
2021/11/03 06:52:24;;;;;;;0.38;0.38;;;5.10;99.90;;;;;;5031749;28;20242;-78
2021/11/03 06:54:50;;;;;;;0.10;0.10;;;5.10;99.90;;;;;;5031684;28;20157;-78
2021/11/03 06:57:17;;;;;;;8.57;1.98;;;5.30;99.90;;;;;;5031794;28;20189;-79
2021/11/03 06:59:44;;;;;;;0.28;0.28;;;5.40;99.90;;;;;;5032123;28;20209;-79
2021/11/03 07:02:17;;;;;;;3.60;3.30;;;5.40;99.90;;;;;;5031092;28;20238;-79
2021/11/03 07:04:43;;;;;;;0.25;0.25;;;5.70;99.90;;;;;;5036395;28;20181;-79
2021/11/03 07:07:10;;;;;;;0.57;0.57;;;5.80;99.90;;;;;;5042433;28;20190;-80
2021/11/03 07:09:37;;;;;;;0.63;0.63;;;5.90;99.90;;;;;;5038215;28;20173;-80
2021/11/03 07:12:03;;;;;;;1.98;1.88;;;6.00;99.90;;;;;;5031230;28;20606;-77
2021/11/03 07:14:29;;;;;;;0.30;0.30;;;6.00;99.90;;;;;;5031668;28;20185;-76
2021/11/03 07:16:55;;;;;;;0.35;0.28;;;5.90;99.90;;;;;;5051739;28;20220;-77
2021/11/03 07:19:21;;;;;;;0.47;0.47;;;5.90;99.90;;;;;;5033291;28;20166;-75
2021/11/03 07:21:47;;;;;;;0.38;0.38;;;6.00;99.90;;;;;;5032959;28;20166;-75
2021/11/03 07:24:13;;;;;;;0.40;0.40;;;6.20;99.90;;;;;;5032889;28;20200;-76
2021/11/03 07:26:43;;;;;;;0.10;0.10;;;6.40;99.90;;;;;;5050905;28;20162;-76
2021/11/03 07:29:11;;;;;;;0.38;0.22;;;6.60;99.90;;;;;;5050490;28;20177;-76
2021/11/03 07:31:38;;;;;;;0.65;0.65;;;6.80;99.90;;;;;;5032600;28;20185;-77
2021/11/03 07:34:04;;;;;;;0.50;0.50;;;7.20;99.90;;;;;;5050705;28;20161;-77
2021/11/03 07:36:32;;;;;;;0.90;0.60;;;7.40;99.90;;;;;;5050345;28;20154;-76
2021/11/03 07:38:58;;;;;;;0.10;0.10;;;7.70;99.90;;;;;;5041555;28;20166;-76
2021/11/03 07:41:25;;;;;;;0.32;0.32;;;7.90;99.90;;;;;;5030591;28;20162;-75
2021/11/03 07:43:53;;;;;;;0.10;0.10;;;7.60;99.90;;;;;;5030809;28;20161;-76
2021/11/03 07:46:19;;;;;;;0.30;0.30;;;7.60;99.90;;;;;;5013224;28;20166;-76
2021/11/03 07:48:45;;;;;;;3.92;1.45;;;7.70;99.90;;;;;;5012729;28;20202;-76
2021/11/03 07:51:14;;;;;;;0.00;0.00;;;8.00;99.90;;;;;;5013182;28;20265;-75
2021/11/03 07:53:42;;;;;;;0.60;0.60;;;8.10;99.90;;;;;;5012412;28;20209;-75
2021/11/03 07:56:19;;;;;;;0.63;0.63;;;7.60;99.90;;;;;;5047969;28;20169;-76
2021/11/03 07:58:47;;;;;;;1.35;1.25;;;7.50;99.90;;;;;;5048950;28;20189;-76
2021/11/03 08:01:35;;;;;;;0.90;0.90;;;7.30;99.90;;;;;;5030512;28;20208;-77
2021/11/03 08:04:01;;;;;;;0.43;0.43;;;6.90;99.90;;;;;;5019019;28;20186;-76
2021/11/03 08:06:28;;;;;;;1.40;1.40;;;6.80;99.90;;;;;;5012806;28;20187;-75
2021/11/03 08:11:27;;;;;;;0.95;0.95;;;6.80;99.90;;;;;;5009883;28;20155;-77
2021/11/03 08:13:53;;;;;;;1.48;1.17;;;6.80;99.90;;;;;;5010522;28;20194;-76
2021/11/03 08:16:20;;;;;;;0.30;0.30;;;6.90;99.90;;;;;;5009165;28;20173;-77
2021/11/03 08:18:47;;;;;;;0.10;0.10;;;6.80;99.90;;;;;;5010220;28;20194;-81
2021/11/03 08:21:14;;;;;;;0.20;0.20;;;6.80;99.90;;;;;;5009110;28;20229;-80
2021/11/03 08:23:41;;;;;;;1.25;1.15;;;6.70;99.90;;;;;;5010069;28;20174;-75
2021/11/03 08:26:08;;;;;;;0.95;0.95;;;6.70;99.90;;;;;;5010364;28;20159;-75
2021/11/03 08:28:34;;;;;;;2.10;2.00;;;6.90;99.90;;;;;;5007199;28;20206;-74
2021/11/03 08:31:01;;;;;;;0.15;0.15;;;6.70;99.90;;;;;;5008914;28;20174;-75
2021/11/03 08:33:38;;;;;;;0.10;0.10;;;6.60;99.90;;;;;;5010084;28;20670;-77
2021/11/03 08:36:05;;;;;;;0.38;0.38;;;6.70;99.90;;;;;;5008995;28;20228;-75
2021/11/03 08:38:33;;;;;;;0.30;0.30;;;6.70;99.90;;;;;;5009622;28;20282;-75
2021/11/03 08:40:59;;;;;;;5.63;2.25;;;6.70;99.90;;;;;;5010093;28;20155;-76
2021/11/03 08:43:28;;;;;;;0.82;0.82;;;6.70;99.90;;;;;;5008327;28;20187;-76
2021/11/03 08:45:55;;;;;;;1.98;1.58;;;6.70;99.90;;;;;;5010100;28;20179;-76
2021/11/03 08:48:22;;;;;;;1.10;1.10;;;6.60;99.90;;;;;;5008298;28;20201;-76
2021/11/03 08:50:49;;;;;;;0.55;0.55;;;6.50;99.90;;;;;;5010133;28;20163;-75
2021/11/03 08:53:17;;;;;;;0.70;0.60;;;6.60;99.90;;;;;;5009308;28;20245;-75
2021/11/03 08:55:48;;;;;;;0.22;0.22;;;6.80;99.90;;;;;;5009901;28;20154;-76
2021/11/03 08:58:20;;;;;;;1.95;1.30;;;6.90;99.90;;;;;;5009932;28;20199;-73
2021/11/03 09:00:50;;;;;;;6.28;3.03;;;6.80;99.90;;;;;;5009775;28;20147;-74
2021/11/03 09:03:16;;;;;;;0.65;0.65;;;6.90;99.90;;;;;;5021359;28;20245;-73
2021/11/03 09:05:43;;;;;;;0.52;0.52;;;6.60;99.90;;;;;;5029319;28;20194;-73
2021/11/03 09:08:11;;;;;;;0.82;0.82;;;6.60;99.90;;;;;;5027908;28;20194;-74
2021/11/03 09:10:52;;;;;;;0.28;0.28;;;6.70;99.90;;;;;;5027952;28;20174;-74
2021/11/03 09:13:22;;;;;;;0.22;0.22;;;6.90;99.90;;;;;;5028840;28;20208;-74
2021/11/03 09:15:49;;;;;;;1.95;1.48;;;7.40;99.90;;;;;;5028825;28;20162;-73
2021/11/03 09:18:16;;;;;;;1.30;1.23;;;7.80;99.90;;;;;;5028847;28;20194;-74
2021/11/03 09:20:45;;;;;;;1.10;1.05;;;8.10;99.90;;;;;;5029222;28;20165;-75
2021/11/03 09:23:11;;;;;;;0.47;0.47;;;7.70;99.90;;;;;;5027223;28;20181;-75
2021/11/03 09:25:38;;;;;;;1.27;1.08;;;7.50;99.90;;;;;;5029236;28;20272;-74
2021/11/03 09:28:04;;;;;;;1.60;1.50;;;7.20;99.90;;;;;;5036247;28;20222;-74
2021/11/03 09:30:31;;;;;;;0.88;0.88;;;6.90;99.90;;;;;;5047499;28;20180;-74
2021/11/03 09:33:00;;;;;;;1.73;1.63;;;6.80;99.90;;;;;;5025077;28;20194;-74
2021/11/03 09:35:29;;;;;;;1.00;1.00;;;6.90;99.90;;;;;;5027422;28;20245;-74
2021/11/03 09:37:57;;;;;;;0.10;0.10;;;7.00;99.90;;;;;;5027557;28;20190;-75
2021/11/03 09:40:30;;;;;;;0.20;0.20;;;7.10;99.90;;;;;;5029205;28;20221;-72
2021/11/03 09:42:57;;;;;;;0.65;0.65;;;7.20;99.90;;;;;;5028624;28;20225;-73
2021/11/03 09:45:31;;;;;;;1.50;1.48;;;7.20;99.90;;;;;;5032535;28;20173;-73
2021/11/03 09:48:06;;;;;;;0.15;0.15;;;6.90;99.90;;;;;;5027067;28;20260;-73
2021/11/03 09:50:37;;;;;;;2.72;2.58;;;6.90;99.90;;;;;;5009191;28;20165;-74
2021/11/03 09:53:17;;;;;;;0.80;0.80;;;6.90;99.90;;;;;;5026960;28;20201;-73
2021/11/03 09:55:43;;;;;;;0.63;0.63;;;7.10;99.90;;;;;;5028722;28;20158;-73
2021/11/03 09:58:21;;;;;;;0.10;0.10;;;7.10;99.90;;;;;;5028676;28;20260;-74
2021/11/03 10:00:56;;;;;;;0.68;0.68;;;7.50;99.90;;;;;;5027246;28;20174;-74
2021/11/03 10:03:47;;;;;;;0.95;0.95;;;7.60;99.90;;;;;;5042545;28;20227;-74
2021/11/03 10:06:51;;;;;;;1.40;1.30;;;7.50;99.90;;;;;;5030564;28;20161;-74
2021/11/03 10:09:16;;;;;;;0.77;0.77;;;7.50;99.90;;;;;;4982258;28;20215;-72
2021/11/03 10:11:48;;;;;;;0.50;0.47;;;7.40;99.90;;;;;;5050953;28;20161;-74
2021/11/03 10:14:14;;;;;;;0.15;0.15;;;7.40;99.90;;;;;;5048090;28;20611;-73
2021/11/03 10:16:44;;;;;;;0.52;0.52;;;7.30;99.90;;;;;;5048443;28;20188;-74
2021/11/03 10:19:13;;;;;;;0.65;0.65;;;7.40;99.90;;;;;;5047416;28;20160;-74
2021/11/03 10:21:51;;;;;;;1.55;1.45;;;7.80;99.90;;;;;;5047825;28;20184;-73
2021/11/03 10:24:19;;;;;;;0.22;0.22;;;8.20;99.90;;;;;;5051996;28;20149;-74
2021/11/03 10:27:10;;;;;;;0.98;0.98;;;8.60;99.90;;;;;;5051781;28;20221;-73
2021/11/03 10:29:38;;;;;;;0.68;0.68;;;9.00;99.90;;;;;;5052030;28;20177;-73
2021/11/03 10:32:28;;;;;;;0.32;0.32;;;9.10;99.90;;;;;;5034227;28;20235;-74
2021/11/03 10:35:29;;;;;;;0.20;0.20;;;8.60;99.90;;;;;;5034156;28;20233;-73
2021/11/03 10:38:18;;;;;;;1.38;1.15;;;8.80;99.90;;;;;;4990686;28;20270;-73
2021/11/03 10:40:48;;;;;;;0.70;0.70;;;9.80;99.90;;;;;;4990719;28;20163;-73
2021/11/03 10:43:31;;;;;;;1.42;1.30;;;9.20;99.90;;;;;;4974419;28;20191;-73
2021/11/03 10:46:02;;;;;;;1.95;0.88;;;9.50;99.90;;;;;;4989913;28;20174;-74
2021/11/03 10:48:30;;;;;;;0.10;0.10;;;10.60;99.90;;;;;;5009875;28;20318;-73
2021/11/03 10:50:56;;;;;;;3.10;1.75;;;10.30;99.90;;;;;;5009878;28;20267;-73
2021/11/03 10:53:36;;;;;;;0.40;0.40;;;9.40;99.90;;;;;;5009625;28;20194;-72
2021/11/03 10:56:20;;;;;;;1.00;0.98;;;8.80;99.90;;;;;;5009918;28;20186;-73
2021/11/03 10:58:57;;;;;;;0.10;0.10;;;8.60;99.90;;;;;;5010159;28;20162;-72
2021/11/03 11:01:23;;;;;;;0.10;0.10;;;8.40;99.90;;;;;;4993460;28;20202;-73
2021/11/03 11:04:25;;;;;;;1.38;1.30;;;8.20;99.90;;;;;;5009819;28;20301;-73
2021/11/03 11:06:55;;;;;;;0.85;0.85;;;8.90;99.90;;;;;;5009919;28;20183;-73
2021/11/03 11:09:24;;;;;;;0.47;0.47;;;9.20;99.90;;;;;;4993420;28;20271;-73
2021/11/03 11:11:55;;;;;;;0.38;0.38;;;9.80;99.90;;;;;;5009608;28;20592;-73
2021/11/03 11:14:24;;;;;;;0.60;0.30;;;10.30;99.90;;;;;;5005774;28;20187;-73
2021/11/03 11:17:13;;;;;;;0.65;0.65;;;10.50;99.90;;;;;;5031507;28;20185;-73
2021/11/03 11:19:51;;;;;;;0.38;0.38;;;10.30;99.90;;;;;;5031162;28;20198;-73
2021/11/03 11:22:39;;;;;;;2.88;2.63;;;9.90;99.90;;;;;;5031301;28;20180;-73
2021/11/03 11:25:07;;;;;;;0.52;0.52;;;9.80;99.90;;;;;;5013619;28;20177;-74
2021/11/03 11:27:43;;;;;;;1.25;1.23;;;10.30;99.90;;;;;;5031497;28;20158;-74
2021/11/03 11:30:18;;;;;;;0.75;0.75;;;10.40;99.90;;;;;;5031059;28;20194;-73
2021/11/03 11:32:53;;;;;;;0.60;0.60;;;10.30;99.90;;;;;;5013052;28;20214;-74
2021/11/03 11:35:45;;;;;;;2.00;1.88;;;12.00;99.90;;;;;;5016328;28;20180;-74
2021/11/03 11:38:48;;;;;;;0.85;0.80;;;13.40;99.90;;;;;;5050932;28;20153;-74
2021/11/03 11:41:20;;;;;;;0.10;0.10;;;13.20;99.90;;;;;;5050397;28;20189;-73
2021/11/03 11:44:06;;;;;;;0.65;0.65;;;11.70;99.90;;;;;;5032609;28;20166;-74
2021/11/03 11:46:33;;;;;;;1.27;1.13;;;11.20;99.90;;;;;;5032675;28;20161;-74
2021/11/03 11:49:10;;;;;;;0.30;0.30;;;11.60;99.90;;;;;;5032841;28;20176;-74
2021/11/03 11:51:39;;;;;;;1.02;1.02;;;11.10;99.90;;;;;;5050652;28;20224;-72
2021/11/03 11:54:36;;;;;;;0.10;0.10;;;10.80;99.90;;;;;;5050607;28;20225;-73
2021/11/03 11:57:11;;;;;;;3.92;0.95;;;10.90;99.90;;;;;;5026813;28;20192;-72
2021/11/03 12:00:07;;;;;;;0.47;0.47;;;10.80;99.90;;;;;;5032444;28;20250;-73
2021/11/03 12:02:44;;;;;;;0.65;0.65;;;10.60;99.90;;;;;;5037294;28;20232;-72
2021/11/03 12:05:14;;;;;;;0.35;0.35;;;10.60;99.90;;;;;;5050160;28;20291;-73
2021/11/03 12:07:41;;;;;;;1.00;0.93;;;10.70;99.90;;;;;;5050085;28;20160;-73
2021/11/03 12:10:26;;;;;;;0.52;0.52;;;10.60;99.90;;;;;;5049807;28;20189;-72
2021/11/03 12:13:17;;;;;;;0.55;0.55;;;10.40;99.90;;;;;;5049927;28;20185;-72
2021/11/03 12:15:48;;;;;;;1.33;0.85;;;9.80;99.90;;;;;;5044885;28;20248;-72
2021/11/03 12:18:34;;;;;;;0.30;0.30;;;9.80;99.90;;;;;;5050169;28;20162;-72
2021/11/03 12:21:03;;;;;;;0.10;0.10;;;10.30;99.90;;;;;;5042650;28;20209;-72
2021/11/03 12:23:48;;;;;;;0.10;0.10;;;10.50;99.90;;;;;;5049809;28;20170;-72
2021/11/03 12:26:26;;;;;;;0.03;0.03;;;10.50;99.90;;;;;;5049865;28;20167;-72
2021/11/03 12:28:56;;;;;;;0.75;0.75;;;10.30;99.90;;;;;;5049831;28;20204;-73
2021/11/03 12:31:58;;;;;;;3.45;3.20;;;9.80;99.90;;;;;;5049601;28;20216;-72
2021/11/03 12:34:28;;;;;;;0.45;0.45;;;9.70;99.90;;;;;;5049755;28;20222;-73
2021/11/03 12:37:06;;;;;;;0.10;0.10;;;10.00;99.90;;;;;;5049603;28;20181;-72
2021/11/03 12:39:32;;;;;;;0.40;0.40;;;9.90;99.90;;;;;;5049521;28;20197;-73
2021/11/03 12:42:13;;;;;;;0.10;0.10;;;9.70;99.90;;;;;;5049657;28;20640;-71
2021/11/03 12:45:11;;;;;;;1.15;0.47;;;9.60;99.90;;;;;;5049346;28;20154;-72
2021/11/03 12:48:20;;;;;;;0.10;0.10;;;9.60;99.90;;;;;;5028487;28;20177;-72
2021/11/03 12:50:47;;;;;;;0.20;0.20;;;9.90;99.90;;;;;;5026856;28;20201;-73
2021/11/03 12:53:33;;;;;;;0.25;0.25;;;10.00;99.90;;;;;;5049107;28;20196;-72
2021/11/03 12:56:13;;;;;;;0.03;0.03;;;10.10;99.90;;;;;;5031303;28;20193;-72
2021/11/03 12:58:45;;;;;;;0.20;0.20;;;10.10;99.90;;;;;;5031588;28;20162;-72
2021/11/03 13:01:30;;;;;;;0.30;0.30;;;9.90;99.90;;;;;;5031239;28;20227;-72
2021/11/03 13:04:16;;;;;;;0.20;0.20;;;10.10;99.90;;;;;;5031446;28;20237;-72
2021/11/03 13:06:47;;;;;;;0.10;0.10;;;9.90;99.90;;;;;;5049255;28;20160;-72
2021/11/03 13:09:34;;;;;;;0.30;0.30;;;9.80;99.90;;;;;;5031353;28;20204;-72
2021/11/03 13:12:02;;;;;;;0.45;0.45;;;9.80;99.90;;;;;;5031074;28;20188;-72
2021/11/03 13:14:31;;;;;;;0.90;0.90;;;9.90;99.90;;;;;;5029410;28;20204;-72